Data for 10/16/2018

Time Sea-Level Adjusted Pressure Absolute Pressure Temperature Relative Humidity Dew Point   
(mb) (inHg) (mb) (inHg) (C) (F) (%) (C) (F)
00:05 1029 30.39 858 25.34 1.5 34.7 66 -4.1 24.6
00:10 1029 30.39 858 25.34 1.6 34.9 65 -4.2 24.4
00:15 1029 30.39 858 25.34 1.8 35.3 65 -4.1 24.7
00:20 1029 30.39 858 25.34 2 35.6 63 -4.3 24.3
00:25 1029 30.39 858 25.34 2.1 35.8 65 -3.9 25
00:30 1029 30.39 858 25.34 2.1 35.8 65 -3.7 25.3
00:35 1029 30.39 858 25.34 1.9 35.4 67 -3.6 25.4
00:40 1029 30.39 858 25.34 1.5 34.8 69 -3.6 25.5
00:45 1029 30.39 858 25.34 1.4 34.5 69 -3.6 25.5
00:50 1029 30.39 858 25.34 1.4 34.4 69 -3.7 25.4
00:55 1029 30.39 858 25.34 1.3 34.3 69 -3.7 25.3
01:00 1029 30.39 858 25.34 1.2 34.1 69 -4 24.9
01:05 1029 30.39 858 25.34 1.5 34.7 68 -3.8 25.1
01:10 1029 30.39 858 25.34 1.6 34.9 68 -3.8 25.2
01:15 1029 30.39 858 25.34 1.5 34.8 68 -3.7 25.4
01:20 1029 30.39 858 25.34 1.4 34.5 69 -3.7 25.4
01:25 1029 30.39 858 25.34 1 33.8 71 -3.7 25.3
01:30 1029 30.39 858 25.34 1.1 33.9 68 -4.3 24.3
01:35 1029 30.39 858 25.34 1.1 34.1 67 -4.3 24.2
01:40 1029 30.39 858 25.34 1.2 34.2 68 -4.1 24.7
01:45 1029 30.39 859 25.37 1.3 34.4 67 -4.1 24.6
01:50 1029 30.39 859 25.37 1.2 34.1 69 -3.9 25
01:55 1029 30.39 858 25.34 0.9 33.6 70 -4 24.7
02:00 1029 30.39 858 25.34 1 33.8 69 -4.1 24.7
02:05 1029 30.39 859 25.37 1.1 33.9 69 -4.1 24.7
02:10 1029 30.39 858 25.34 1 33.9 69 -4 24.8
02:15 1029 30.39 858 25.34 0.7 33.3 70 -4 24.7
02:20 1029 30.39 858 25.34 0.4 32.8 72 -4 24.7
02:25 1029 30.39 858 25.34 0.3 32.6 73 -4 24.8
02:30 1029 30.39 858 25.34 0.2 32.4 73 -4 24.8
02:35 1029 30.39 858 25.34 0.2 32.3 73 -4.1 24.7
02:40 1029 30.39 858 25.34 0.1 32.2 73 -4.2 24.4
02:45 1029 30.39 858 25.34 0 32 72 -4.5 23.9
02:50 1029 30.39 859 25.37 0.1 32.2 70 -4.7 23.6
02:55 1029 30.39 859 25.37 -0 31.9 71 -4.7 23.5
03:00 1029 30.39 859 25.37 -0 31.9 71 -4.7 23.5
03:05 1029 30.39 859 25.37 0.1 32.1 70 -4.9 23.3
03:10 1030 30.42 859 25.37 -0.1 31.9 71 -4.7 23.5
03:15 1029 30.39 859 25.37 -0 32 71 -4.8 23.4
03:20 1029 30.39 859 25.37 -0.2 31.6 72 -4.7 23.5
03:25 1029 30.39 859 25.37 -0.4 31.3 72 -4.9 23.3
03:30 1029 30.39 859 25.37 -0.4 31.4 71 -5 23.1
03:35 1029 30.39 859 25.37 -0.1 31.8 70 -5 23
03:40 1029 30.39 859 25.37 0.7 33.2 66 -5 23
03:45 1029 30.39 859 25.37 1.2 34.2 66 -4.4 24
03:50 1029 30.39 859 25.37 1.1 34 67 -4.3 24.2
03:55 1029 30.39 859 25.37 1 33.8 67 -4.4 24
04:00 1029 30.39 859 25.37 0.8 33.4 68 -4.5 24
04:05 1029 30.39 859 25.37 0.9 33.5 68 -4.5 24
04:10 1029 30.39 859 25.37 0.9 33.6 68 -4.4 24.2
04:15 1029 30.39 859 25.37 1 33.7 67 -4.4 24.1
04:20 1029 30.39 859 25.37 0.9 33.6 67 -4.6 23.8
04:25 1029 30.39 859 25.37 0.9 33.6 67 -4.6 23.8
04:30 1030 30.42 859 25.37 0.4 32.7 69 -4.7 23.5
04:35 1030 30.42 859 25.37 0.2 32.4 68 -4.9 23.2
04:40 1030 30.42 859 25.37 0.3 32.5 69 -4.8 23.4
04:45 1030 30.42 859 25.37 0.2 32.3 69 -4.8 23.3
04:50 1030 30.42 859 25.37 0.1 32.2 69 -4.9 23.2
04:55 1030 30.42 859 25.37 0.7 33.3 66 -4.9 23.2
05:00 1030 30.42 859 25.37 0.7 33.3 67 -4.7 23.6
05:05 1030 30.42 859 25.37 0.3 32.5 69 -4.8 23.3
05:10 1030 30.42 859 25.37 0.3 32.5 69 -4.8 23.4
05:15 1030 30.42 859 25.37 0.7 33.2 67 -4.7 23.6
05:20 1030 30.42 859 25.37 0.7 33.2 68 -4.5 23.9
05:25 1030 30.42 859 25.37 0.6 33 69 -4.5 24
05:30 1030 30.42 859 25.37 0.5 32.8 70 -4.4 24.1
05:35 1030 30.42 859 25.37 0.3 32.5 71 -4.4 24.1
05:40 1030 30.42 859 25.37 0.4 32.7 69 -4.6 23.8
05:45 1030 30.42 859 25.37 0.6 33.1 69 -4.5 23.9
05:50 1030 30.42 859 25.37 0 32 70 -4.8 23.3
05:55 1030 30.42 859 25.37 -0.1 31.8 70 -5 23
06:00 1030 30.42 859 25.37 -0.1 31.8 69 -5 22.9
06:05 1030 30.42 859 25.37 -0.1 31.8 70 -5 23
06:10 1030 30.42 859 25.37 -0.2 31.6 70 -4.9 23.1
06:15 1030 30.42 859 25.37 -0.6 31 72 -5 23
06:20 1030 30.42 859 25.37 -0.9 30.4 73 -5.1 22.8
06:25 1030 30.42 859 25.37 -0.9 30.3 74 -5.1 22.9
06:30 1030 30.42 859 25.37 -1 30.2 74 -5.1 22.8
06:35 1030 30.42 859 25.37 -1 30.3 74 -5.1 22.9
06:40 1030 30.42 859 25.37 -1.1 30.1 73 -5.2 22.6
06:45 1030 30.42 859 25.37 -0.9 30.3 73 -5.1 22.8
06:50 1030 30.42 859 25.37 -0.9 30.4 73 -5.1 22.8
06:55 1030 30.42 859 25.37 -0.7 30.7 72 -5.1 22.7
07:00 1030 30.42 859 25.37 -0.3 31.4 71 -5 23
07:05 1030 30.42 859 25.37 -0.5 31.1 71 -5.1 22.8
07:10 1030 30.42 859 25.37 -0.6 30.9 72 -5.2 22.7
07:15 1030 30.42 859 25.37 -0.2 31.6 71 -4.9 23.2
07:20 1030 30.42 860 25.4 -0.1 31.8 71 -4.7 23.5
07:25 1030 30.42 860 25.4 -0.2 31.6 72 -4.7 23.6
07:30 1030 30.42 860 25.4 -0.4 31.3 73 -4.7 23.5
07:35 1031 30.45 860 25.4 -0.6 31 74 -4.7 23.5
07:40 1031 30.45 860 25.4 -0.5 31.1 73 -4.7 23.5
07:45 1031 30.45 860 25.4 -0.5 31 73 -4.7 23.5
07:50 1031 30.45 860 25.4 -0.5 31.1 73 -4.8 23.4
07:55 1031 30.45 860 25.4 0.2 32.3 70 -4.7 23.5
08:00 1031 30.45 860 25.4 0.7 33.3 67 -4.6 23.7
08:05 1031 30.45 860 25.4 0.9 33.6 67 -4.5 23.9
08:10 1031 30.45 860 25.4 1.2 34.1 66 -4.4 24
08:15 1031 30.45 860 25.4 1.5 34.7 65 -4.4 24
08:20 1031 30.45 860 25.4 2.3 36.1 61 -4.4 24
08:25 1031 30.45 860 25.4 2.5 36.5 61 -4.3 24.2
08:30 1031 30.45 860 25.4 2.9 37.3 58 -4.6 23.7
08:35 1031 30.45 860 25.4 3.6 38.4 57 -4.1 24.5
08:40 1031 30.45 860 25.4 3.8 38.9 56 -4.1 24.6
08:45 1031 30.45 860 25.4 3.5 38.3 56 -4.5 23.9
08:50 1031 30.45 860 25.4 3.5 38.4 56 -4.5 23.9
08:55 1031 30.45 860 25.4 3.2 37.8 58 -4.2 24.4
09:00 1031 30.45 860 25.4 3.9 39 54 -4.6 23.8
09:05 1031 30.45 860 25.4 4.2 39.5 56 -3.9 24.9
09:10 1031 30.45 860 25.4 3.8 38.8 56 -4.2 24.4
09:15 1031 30.45 860 25.4 4.3 39.7 55 -4.1 24.7
09:20 1031 30.45 860 25.4 4.5 40.1 55 -3.8 25.1
09:25 1031 30.45 860 25.4 5.2 41.4 52 -3.9 25
09:30 1031 30.45 860 25.4 5.6 42.1 50 -3.9 25
09:35 1031 30.45 860 25.4 5.8 42.5 50 -3.7 25.3
09:40 1031 30.45 860 25.4 6 42.8 49 -4 24.8
09:45 1031 30.45 860 25.4 6.7 44 47 -3.7 25.3
09:50 1031 30.45 860 25.4 6.6 44 47 -3.7 25.3
09:55 1031 30.45 860 25.4 6.3 43.3 49 -3.6 25.6
10:00 1031 30.45 860 25.4 6 42.8 48 -4.2 24.4
10:05 1031 30.45 860 25.4 6.7 44 48 -3.7 25.4
10:10 1031 30.45 860 25.4 6.8 44.2 46 -3.9 25
10:15 1031 30.45 860 25.4 6.8 44.3 47 -3.6 25.5
10:20 1031 30.45 860 25.4 6.9 44.5 47 -3.7 25.4
10:25 1031 30.45 860 25.4 7.3 45.1 46 -3.7 25.4
10:30 1031 30.45 860 25.4 7 44.7 46 -3.7 25.3
10:35 1031 30.45 860 25.4 7.1 44.8 47 -3.5 25.6
10:40 1031 30.45 860 25.4 7.2 44.9 45 -3.9 25
10:45 1031 30.45 860 25.4 7.7 45.9 45 -3.5 25.8
10:50 1031 30.45 860 25.4 7.7 45.8 45 -3.3 26
10:55 1031 30.45 860 25.4 7.4 45.4 46 -3.5 25.6
11:00 1031 30.45 860 25.4 7.4 45.3 46 -3.3 26
11:05 1031 30.45 860 25.4 7.8 46 45 -3.4 25.9
11:10 1031 30.45 860 25.4 7.8 46 44 -3.6 25.6
11:15 1031 30.45 860 25.4 8 46.4 44 -3.5 25.7
11:20 1031 30.45 860 25.4 8.4 47.1 42 -3.6 25.5
11:25 1031 30.45 860 25.4 8.1 46.6 45 -3.2 26.3
11:30 1031 30.45 860 25.4 7.8 46 45 -3.5 25.7
11:35 1031 30.45 860 25.4 7.7 45.8 46 -3.3 26.1
11:40 1031 30.45 860 25.4 7.9 46.3 45 -3.4 25.9
11:45 1031 30.45 860 25.4 8.1 46.7 44 -3.3 26
11:50 1031 30.45 860 25.4 8.5 47.3 43 -3.5 25.7
11:55 1031 30.45 860 25.4 9 48.2 41 -3.5 25.7
12:00 1031 30.45 860 25.4 9.4 49 41 -3.1 26.3
12:05 1031 30.45 860 25.4 9.4 48.8 42 -3 26.6
12:10 1030 30.42 860 25.4 9.3 48.7 42 -3 26.7
12:15 1030 30.42 860 25.4 9.4 48.9 41 -3.1 26.5
12:20 1030 30.42 860 25.4 9.8 49.6 39 -3.5 25.7
12:25 1030 30.42 860 25.4 9.8 49.6 40 -3.1 26.3
12:30 1030 30.42 859 25.37 10 49.9 38 -3.6 25.5
12:35 1030 30.42 859 25.37 10.2 50.4 36 -4.1 24.6
12:40 1030 30.42 859 25.37 10.6 51 35 -4.1 24.6
12:45 1030 30.42 859 25.37 10.6 51 37 -3.6 25.6
12:50 1030 30.42 859 25.37 10.8 51.4 36 -3.7 25.3
12:55 1030 30.42 859 25.37 11.2 52.2 34 -4.2 24.5
13:00 1030 30.42 859 25.37 11.8 53.3 33 -3.8 25.1
13:05 1030 30.42 859 25.37 11.3 52.3 36 -3.3 26.1
13:10 1030 30.42 859 25.37 11.2 52.2 33 -4.2 24.4
13:15 1030 30.42 859 25.37 11.1 51.9 36 -3.5 25.6
13:20 1030 30.42 859 25.37 11.5 52.8 35 -3.5 25.7
13:25 1030 30.42 859 25.37 11.7 53.1 34 -3.4 25.9
13:30 1030 30.42 859 25.37 11.5 52.8 33 -4 24.8
13:35 1030 30.42 859 25.37 11.8 53.2 34 -3.3 26
13:40 1030 30.42 859 25.37 11.7 53 35 -3.4 25.9
13:45 1030 30.42 859 25.37 11.5 52.8 36 -3.1 26.3
13:50 1030 30.42 859 25.37 11.1 51.9 35 -3.6 25.5
13:55 1029 30.39 859 25.37 11.5 52.7 34 -4 24.8
14:00 1029 30.39 859 25.37 12 53.5 34 -3.5 25.6
14:05 1029 30.39 859 25.37 11.9 53.3 33 -3.7 25.4
14:10 1029 30.39 859 25.37 11.5 52.7 33 -4 24.8
14:15 1029 30.39 859 25.37 11.3 52.3 36 -3.2 26.3
14:20 1029 30.39 859 25.37 11.5 52.7 35 -3.6 25.6
14:25 1029 30.39 859 25.37 11.6 53 35 -3.4 25.9
14:30 1029 30.39 859 25.37 11.7 53 35 -3.2 26.2
14:35 1029 30.39 859 25.37 11.8 53.3 34 -3.5 25.7
14:40 1029 30.39 859 25.37 12 53.6 33 -3.5 25.6
14:45 1029 30.39 859 25.37 12 53.5 33 -3.6 25.5
14:50 1029 30.39 858 25.34 12.2 54 33 -3.7 25.3
14:55 1029 30.39 858 25.34 12.3 54.1 32 -3.9 25
15:00 1029 30.39 858 25.34 12.5 54.5 33 -3.5 25.8
15:05 1029 30.39 858 25.34 12.3 54.2 33 -3.5 25.7
15:10 1029 30.39 858 25.34 12.4 54.3 33 -3.2 26.2
15:15 1029 30.39 858 25.34 12.2 54 34 -3.3 26.1
15:20 1029 30.39 858 25.34 12.2 54 32 -4 24.8
15:25 1029 30.39 858 25.34 12.4 54.3 31 -4 24.8
15:30 1029 30.39 858 25.34 12.2 53.9 34 -3.3 26
15:35 1029 30.39 858 25.34 12 53.5 33 -3.7 25.3
15:40 1029 30.39 858 25.34 12.2 53.9 33 -3.6 25.4
15:45 1029 30.39 858 25.34 12.3 54.1 33 -3.5 25.7
15:50 1029 30.39 858 25.34 12.4 54.3 33 -3.3 26
15:55 1029 30.39 858 25.34 12.4 54.3 32 -3.9 25
16:00 1029 30.39 858 25.34 12.2 54 32 -3.9 25
16:05 1029 30.39 858 25.34 12.2 54 33 -3.6 25.6
16:10 1029 30.39 858 25.34 12.1 53.8 31 -4.3 24.2
16:15 1029 30.39 858 25.34 11.8 53.2 34 -3.6 25.5
16:20 1029 30.39 858 25.34 11.6 53 35 -3.4 25.9
16:25 1029 30.39 858 25.34 11.7 53 33 -3.9 24.9
16:30 1029 30.39 858 25.34 11.8 53.2 33 -3.7 25.3
16:35 1029 30.39 858 25.34 11.5 52.6 34 -3.6 25.5
16:40 1029 30.39 858 25.34 11.8 53.2 35 -3.1 26.5
16:45 1029 30.39 858 25.34 11.5 52.6 36 -3.1 26.5
16:50 1029 30.39 858 25.34 11.2 52.2 36 -3.1 26.4
16:55 1029 30.39 858 25.34 11.3 52.3 37 -2.9 26.9
17:00 1029 30.39 858 25.34 11.2 52.1 37 -2.8 26.9
17:05 1029 30.39 858 25.34 11.2 52.1 38 -2.6 27.4
17:10 1029 30.39 858 25.34 11.1 52.1 39 -2.2 28
17:15 1029 30.39 858 25.34 10.8 51.4 42 -1.7 29
17:20 1029 30.39 858 25.34 10.1 50.2 45 -1.1 30
17:25 1029 30.39 858 25.34 9.4 48.9 47 -1.2 29.9
17:30 1029 30.39 858 25.34 8.8 47.8 51 -0.8 30.6
17:35 1029 30.39 858 25.34 8.2 46.8 53 -0.7 30.7
17:40 1029 30.39 858 25.34 7.7 45.8 55 -0.7 30.7
17:45 1029 30.39 858 25.34 7.1 44.8 58 -0.7 30.8
17:50 1029 30.39 858 25.34 6.8 44.2 59 -0.7 30.7
17:55 1029 30.39 858 25.34 6.6 43.9 60 -0.6 30.9
18:00 1029 30.39 858 25.34 6.3 43.4 61 -0.7 30.8
18:05 1029 30.39 858 25.34 6.2 43.1 62 -0.6 30.9
18:10 1029 30.39 858 25.34 5.9 42.6 63 -0.7 30.8
18:15 1029 30.39 858 25.34 5.8 42.4 63 -0.7 30.8
18:20 1029 30.39 858 25.34 5.7 42.2 64 -0.7 30.8
18:25 1029 30.39 858 25.34 5.4 41.7 65 -0.6 30.8
18:30 1029 30.39 858 25.34 5 41 66 -0.7 30.7
18:35 1029 30.39 858 25.34 4.7 40.4 66 -1 30.1
18:40 1029 30.39 858 25.34 4.6 40.2 67 -1.1 30
18:45 1029 30.39 858 25.34 4.4 39.9 67 -1.3 29.7
18:50 1029 30.39 858 25.34 4.6 40.2 65 -1.5 29.3
18:55 1029 30.39 858 25.34 5 41 62 -1.6 29.1
19:00 1029 30.39 858 25.34 4.8 40.7 62 -1.8 28.7
19:05 1029 30.39 858 25.34 4.6 40.3 62 -2 28.4
19:10 1029 30.39 858 25.34 4.8 40.6 60 -2.2 28
19:15 1029 30.39 858 25.34 5 40.9 60 -2.1 28.3
19:20 1029 30.39 858 25.34 4.9 40.8 62 -1.9 28.7
19:25 1029 30.39 858 25.34 4.6 40.2 63 -2 28.5
19:30 1029 30.39 858 25.34 4.5 40.1 62 -2.2 28
19:35 1029 30.39 858 25.34 4.6 40.3 61 -2.3 27.8
19:40 1029 30.39 858 25.34 4.9 40.9 59 -2.3 27.9
19:45 1029 30.39 858 25.34 5.1 41.3 59 -2.2 28
19:50 1029 30.39 858 25.34 5.1 41.2 59 -2.3 27.9
19:55 1029 30.39 858 25.34 5.2 41.3 58 -2.5 27.5
20:00 1029 30.39 858 25.34 5.4 41.7 57 -2.5 27.6
20:05 1029 30.39 858 25.34 5.4 41.8 57 -2.4 27.7
20:10 1029 30.39 858 25.34 5.4 41.8 57 -2.4 27.7
20:15 1029 30.39 858 25.34 5.5 41.9 58 -2.1 28.2
20:20 1029 30.39 859 25.37 5.4 41.6 58 -2.2 28.1
20:25 1029 30.39 859 25.37 5.1 41.1 60 -1.9 28.5
20:30 1029 30.39 858 25.34 5 41 59 -2.4 27.7
20:35 1029 30.39 859 25.37 5.1 41.1 59 -2.3 27.9
20:40 1029 30.39 859 25.37 4.7 40.5 62 -2 28.3
20:45 1029 30.39 858 25.34 4.5 40.2 61 -2.3 27.8
20:50 1029 30.39 859 25.37 4.6 40.3 62 -2 28.5
20:55 1029 30.39 859 25.37 4.5 40.1 62 -2 28.3
21:00 1029 30.39 859 25.37 4.3 39.7 65 -1.7 28.9
21:05 1029 30.39 859 25.37 3.6 38.4 67 -2.1 28.3
21:10 1029 30.39 859 25.37 3.6 38.5 65 -2.4 27.7
21:15 1029 30.39 859 25.37 3.7 38.7 66 -2.1 28.2
21:20 1029 30.39 859 25.37 3.4 38.2 67 -2 28.4
21:25 1029 30.39 859 25.37 3.6 38.5 66 -2.2 28
21:30 1029 30.39 859 25.37 3.8 38.9 65 -2.2 28
21:35 1029 30.39 859 25.37 3.9 39 64 -2.2 28
21:40 1029 30.39 859 25.37 4.2 39.6 60 -2.8 27
21:45 1029 30.39 859 25.37 4.6 40.2 59 -2.7 27.2
21:50 1029 30.39 859 25.37 4.5 40 61 -2.4 27.7
21:55 1030 30.42 859 25.37 4.1 39.5 61 -2.6 27.3
22:00 1030 30.42 859 25.37 4.1 39.5 61 -2.6 27.3
22:05 1030 30.42 859 25.37 4.1 39.3 61 -2.7 27.2
22:10 1030 30.42 859 25.37 4 39.1 62 -2.7 27.1
22:15 1030 30.42 859 25.37 3.9 39.1 62 -2.8 27
22:20 1030 30.42 859 25.37 4 39.2 61 -2.9 26.8
22:25 1030 30.42 859 25.37 4.1 39.3 61 -2.8 27
22:30 1030 30.42 859 25.37 3.9 39.1 62 -2.6 27.3
22:35 1030 30.42 859 25.37 3.5 38.2 64 -2.6 27.2
22:40 1030 30.42 859 25.37 3.4 38 64 -2.9 26.9
22:45 1030 30.42 859 25.37 3.5 38.3 63 -2.9 26.8
22:50 1030 30.42 859 25.37 3.4 38.2 65 -2.6 27.4
22:55 1030 30.42 859 25.37 3.1 37.6 66 -2.5 27.5
23:00 1030 30.42 859 25.37 3.5 38.3 63 -2.9 26.7
23:05 1030 30.42 859 25.37 4 39.1 62 -2.7 27.1
23:10 1030 30.42 859 25.37 3.9 39 61 -2.9 26.8
23:15 1030 30.42 859 25.37 3.9 39 61 -2.9 26.8
23:20 1030 30.42 859 25.37 4 39.3 60 -2.9 26.7
23:25 1030 30.42 859 25.37 3.9 39 62 -2.7 27.1
23:30 1030 30.42 859 25.37 3.5 38.3 63 -2.8 27
23:35 1030 30.42 859 25.37 3.4 38.1 63 -2.9 26.7
23:40 1030 30.42 859 25.37 3.6 38.4 62 -3 26.5
23:45 1030 30.42 859 25.37 3.8 38.8 62 -2.7 27.1
23:50 1030 30.42 859 25.37 3.8 38.8 63 -2.6 27.4
23:55 1030 30.42 859 25.37 3.4 38.2 65 -2.5 27.4
24:00 1030 30.42 859 25.37 3.4 38.1 64 -2.8 26.9